Nearby METAR Reports

 

KHCR - Heber/Russ Mcdon, Utah, USA
Distance from station: SSW 18mi, 29km
Updated: Fri, 27-Jan-2023 7:10am MST
Light snow, Overcast
Light snow, Overcast
 Wind from calm
Wind: Calm
Temperature: 21°F , -6°C
Dew Point: 18°F , -8°C
Humidity: 86%
Barometer: 30.13 inHg , 1020.3 hPa
Summary: Light Snow
Clouds: Overcast
Visibility: 2 1/2 miles , 4 km
Cloud details: Partly cloudy 1400 ft
Partly cloudy 2300 ft
Overcast 3400 ft
2023/01/27 14:10 KHCR 271410Z AUTO 00000KT 2 1/2SM -SN SCT014 SCT023 OVC034 M06/M08 A3013 RMK AO2
KSLC - Salt Lake City, Utah, USA
Distance from station: W 35mi, 57km
Updated: Fri, 27-Jan-2023 7:28am MST
Light snow, Overcast
Light snow, Overcast
 Wind from SE
Wind: SE 6 mph , 9 km/h
Temperature: 34°F , 1°C
Wind Chill: 29°F , -2°C
Dew Point: 27°F , -3°C
Humidity: 75%
Barometer: 30.15 inHg , 1021 hPa
Summary: Light Snow
Clouds: Overcast
Visibility: 8 miles , 13 km
Cloud details: Overcast 3500 ft
2023/01/27 14:28 KSLC 271428Z 13005KT 8SM -SN OVC035 01/M03 A3015 RMK AO2 SNB26 P0000 T00061028
 
KU42 - Salt Lake Muni, Utah, USA
Distance from station: WSW 37mi, 59km
Updated: Fri, 27-Jan-2023 7:35am MST
Overcast
Overcast
 Wind from SSE
Wind: SSE 17 mph , 28 km/h
Temperature: 30°F , -1°C
Wind Chill: 18°F , -8°C
Dew Point: 30°F , -1°C
Humidity: 100%
Barometer: 30.15 inHg , 1021 hPa
Clouds: Overcast
Visibility: 4 miles , 6 km
Cloud details: Partly cloudy 2700 ft
Mostly cloudy 3500 ft
Overcast 4100 ft
2023/01/27 14:35 KU42 271435Z AUTO 16015KT 4SM SCT027 BKN035 OVC041 M01/M01 A3015 RMK AO1 T10101011
KEVW - Evanston, Wyoming, USA
Distance from station: NNE 40mi, 64km
Updated: Fri, 27-Jan-2023 7:31am MST
Overcast
Overcast
 Wind from SW
Wind: SW 36 mph , 57 km/h, Gust: 51 mph , 81 km/h
Temperature: 23°F , -5°C
Wind Chill: 4°F , -16°C
Dew Point: 19°F , -7°C
Humidity: 86%
Barometer: 29.99 inHg , 1015.6 hPa
Clouds: Overcast
Visibility: 10 miles , 16 km
Cloud details: Partly cloudy 900 ft
Overcast 8000 ft
2023/01/27 14:31 KEVW 271431Z AUTO 23031G44KT 10SM SCT009 OVC080 M05/M07 A2999 RMK AO2 PK WND 23047/1421 T10501067
 
KPVU - Provo Muni, Utah, USA
Distance from station: SSW 41mi, 67km
Updated: Fri, 27-Jan-2023 6:56am MST
Mostly cloudy
Mostly cloudy
 Wind from NNE
Wind: NNE 3 mph , 6 km/h
Temperature: 30°F , -1°C
Dew Point: 27°F , -3°C
Humidity: 86%
Barometer: 30.21 inHg , 1023 hPa
Clouds: Mostly cloudy
Visibility: 10 miles , 16 km
Cloud details: Mostly cloudy 5000 ft
2023/01/27 13:56 KPVU 271356Z 02003KT 10SM BKN050 M01/M03 A3021 RMK AO2 SLP252 T10111028
KHIF - Hill Afb/Ogden, Utah, USA
Distance from station: NW 45mi, 72km
Updated: Fri, 27-Jan-2023 7:27am MST
Light snow, Mist, Overcast
Light snow, Mist, Overcast
 Wind from SSW
Wind: SSW 15 mph , 24 km/h
Temperature: 28°F , -2°C
Wind Chill: 16°F , -9°C
Dew Point: 28°F , -2°C
Humidity: 100%
Barometer: 30.11 inHg , 1019.6 hPa
Summary: Light snow, Mist
Clouds: Overcast
Visibility: 2 miles , 3 km
Cloud details: Overcast 1700 ft
2023/01/27 14:27 KHIF 271427Z 20013KT 2SM -SN BR OVC017 M02/M02 A3011 RMK AO2A CIG 012 RWY32 SLP215
 
KOGD - Ogden, Utah, USA
Distance from station: NW 50mi, 81km
Updated: Fri, 27-Jan-2023 7:33am MST
Light snow, Mist, Overcast
Light snow, Mist, Overcast
 Wind from S
Wind: S 13 mph , 20 km/h
Temperature: 30°F , -1°C
Wind Chill: 20°F , -7°C
Dew Point: 28°F , -2°C
Humidity: 93%
Barometer: 30.12 inHg , 1020 hPa
Summary: Light snow, Mist
Clouds: Overcast
Visibility: 1 mile , 2 km
Cloud details: Overcast 1300 ft
2023/01/27 14:33 KOGD 271433Z 18011KT 1SM -SN BR VV013 M01/M02 A3012 RMK AO2 P0001 T10061022